createdAt,value
2022-10-26T00:00:26.360Z,0.54
2022-10-26T00:01:27.099Z,0
2022-10-26T00:02:27.570Z,0.11
2022-10-26T00:03:27.713Z,0.24
2022-10-26T00:04:27.841Z,0.18
2022-10-26T00:05:27.966Z,0.12
2022-10-26T00:06:28.092Z,0.35
2022-10-26T00:07:28.378Z,0
2022-10-26T00:08:28.517Z,0.16
2022-10-26T00:09:28.647Z,0
2022-10-26T00:10:32.055Z,0
2022-10-26T00:11:32.190Z,0
2022-10-26T00:12:32.315Z,0
2022-10-26T00:13:32.440Z,0
2022-10-26T00:14:32.565Z,0
2022-10-26T00:15:32.691Z,0
2022-10-26T00:16:32.839Z,0
2022-10-26T00:17:32.978Z,0
2022-10-26T00:18:33.104Z,0
2022-10-26T00:19:33.251Z,0
2022-10-26T00:20:33.382Z,0
2022-10-26T00:21:33.514Z,0
2022-10-26T00:22:33.641Z,0
2022-10-26T00:23:33.775Z,0
2022-10-26T00:24:33.911Z,0
2022-10-26T00:25:34.043Z,0
2022-10-26T00:26:34.171Z,0
2022-10-26T00:27:34.312Z,0
2022-10-26T00:28:34.442Z,0.52
2022-10-26T00:29:34.563Z,0
2022-10-26T00:30:34.691Z,0.83
2022-10-26T00:31:34.813Z,0.83
2022-10-26T00:32:35.164Z,0.37
2022-10-26T00:33:35.322Z,0.54
2022-10-26T00:34:35.450Z,0.36
2022-10-26T00:35:46.582Z,0.5
2022-10-26T00:36:46.732Z,0.75
2022-10-26T00:37:48.295Z,0.34
2022-10-26T00:38:48.622Z,0.62
2022-10-26T00:39:48.749Z,0.79
2022-10-26T00:40:49.067Z,0.75
2022-10-26T00:41:49.204Z,0.37
2022-10-26T00:42:50.344Z,0.5
2022-10-26T00:43:50.676Z,0.1
2022-10-26T00:44:50.806Z,0
2022-10-26T00:45:50.935Z,0
2022-10-26T00:46:51.062Z,0
2022-10-26T00:47:51.189Z,0
2022-10-26T00:48:51.318Z,0
2022-10-26T00:49:51.436Z,0
2022-10-26T00:50:51.557Z,0
2022-10-26T00:51:51.686Z,0
2022-10-26T00:52:52.094Z,0
2022-10-26T00:53:52.218Z,0
2022-10-26T00:54:52.340Z,0
2022-10-26T00:55:52.493Z,0
2022-10-26T00:56:52.617Z,0
2022-10-26T00:57:52.758Z,0
2022-10-26T00:58:52.879Z,0
2022-10-26T00:59:53.009Z,0
2022-10-26T01:00:53.134Z,0
2022-10-26T01:01:53.274Z,0
2022-10-26T01:02:53.402Z,0
2022-10-26T01:03:54.319Z,0
2022-10-26T01:04:54.483Z,0
2022-10-26T01:05:54.609Z,0
2022-10-26T01:06:54.741Z,0
2022-10-26T01:07:54.880Z,0
2022-10-26T01:08:55.006Z,0
2022-10-26T01:09:55.132Z,0
2022-10-26T01:10:55.261Z,0
2022-10-26T01:11:55.385Z,0
2022-10-26T01:12:55.513Z,0
2022-10-26T01:13:55.634Z,0
2022-10-26T01:14:55.762Z,0
2022-10-26T01:15:55.887Z,0
2022-10-26T01:16:56.102Z,0.2
2022-10-26T01:17:56.238Z,0
2022-10-26T01:18:56.366Z,0
2022-10-26T01:19:56.486Z,0.79
2022-10-26T01:20:56.609Z,0
2022-10-26T01:21:56.732Z,0
2022-10-26T01:22:56.852Z,0
2022-10-26T01:23:56.975Z,0.12
2022-10-26T01:24:57.105Z,0
2022-10-26T01:25:57.229Z,0.75
2022-10-26T01:26:57.369Z,0.1
2022-10-26T01:27:57.502Z,0.54
2022-10-26T01:28:57.629Z,0
2022-10-26T01:29:57.749Z,0.25
2022-10-26T01:30:57.874Z,0
2022-10-26T01:31:57.993Z,0
2022-10-26T01:32:58.128Z,0.75
2022-10-26T01:33:58.250Z,0
2022-10-26T01:34:58.373Z,0.15
2022-10-26T01:35:58.498Z,0.29
2022-10-26T01:36:58.621Z,0
2022-10-26T01:37:58.741Z,0.58
2022-10-26T01:38:58.865Z,0
2022-10-26T01:39:58.993Z,2.33
2022-10-26T01:40:59.122Z,2.08
2022-10-26T01:41:59.247Z,1.6
2022-10-26T01:42:59.380Z,1.94
2022-10-26T01:43:59.503Z,1.75
2022-10-26T01:44:59.623Z,0.61
2022-10-26T01:45:59.772Z,0.95
2022-10-26T01:46:59.903Z,2.12
2022-10-26T01:48:00.034Z,1.22
2022-10-26T01:49:00.178Z,0.45
2022-10-26T01:50:00.307Z,0.12
2022-10-26T01:51:00.431Z,0.26
2022-10-26T01:52:00.555Z,0
2022-10-26T01:53:00.678Z,0
2022-10-26T01:54:00.806Z,0
2022-10-26T01:55:00.935Z,0.92
2022-10-26T01:56:01.066Z,0.38
2022-10-26T01:57:01.190Z,1.08
2022-10-26T01:58:01.323Z,0
2022-10-26T01:59:01.442Z,0.58
2022-10-26T02:00:01.583Z,0
2022-10-26T02:01:01.705Z,0
2022-10-26T02:02:01.831Z,1.25
2022-10-26T02:03:01.954Z,0.41
2022-10-26T02:04:02.407Z,0.58
2022-10-26T02:05:02.603Z,0.41
2022-10-26T02:06:02.732Z,0.79
2022-10-26T02:07:02.860Z,0
2022-10-26T02:08:02.986Z,0
2022-10-26T02:09:03.115Z,0
2022-10-26T02:10:03.242Z,0
2022-10-26T02:11:03.383Z,0
2022-10-26T02:12:03.516Z,0
2022-10-26T02:13:03.647Z,0
2022-10-26T02:14:03.982Z,0
2022-10-26T02:15:04.138Z,0.14
2022-10-26T02:16:04.273Z,0.47
2022-10-26T02:17:04.398Z,0.95
2022-10-26T02:18:04.523Z,0.19
2022-10-26T02:19:04.666Z,0
2022-10-26T02:20:04.796Z,0
2022-10-26T02:21:04.924Z,0
2022-10-26T02:22:05.053Z,0
2022-10-26T02:23:05.183Z,0
2022-10-26T02:24:05.545Z,0
2022-10-26T02:25:05.681Z,0
2022-10-26T02:26:05.811Z,0
2022-10-26T02:27:05.950Z,0
2022-10-26T02:28:06.068Z,0
2022-10-26T02:29:06.193Z,0
2022-10-26T02:30:06.335Z,0
2022-10-26T02:31:06.461Z,0
2022-10-26T02:32:06.593Z,0
2022-10-26T02:33:06.721Z,0
2022-10-26T02:34:06.851Z,0
2022-10-26T02:35:06.979Z,0
2022-10-26T02:36:07.108Z,0
2022-10-26T02:37:07.237Z,0
2022-10-26T02:38:07.361Z,0
2022-10-26T02:39:07.482Z,0
2022-10-26T02:40:07.621Z,0.14
2022-10-26T02:41:07.753Z,0
2022-10-26T02:42:07.878Z,0.2
2022-10-26T02:43:08.001Z,0.51
2022-10-26T02:44:08.144Z,0.62
2022-10-26T02:45:08.272Z,0.69
2022-10-26T02:46:08.397Z,0.61
2022-10-26T02:47:08.521Z,0
2022-10-26T02:48:08.675Z,0
2022-10-26T02:49:08.896Z,0
2022-10-26T02:50:09.028Z,0
2022-10-26T02:51:09.162Z,0
2022-10-26T02:52:09.289Z,0
2022-10-26T02:53:09.414Z,0
2022-10-26T02:54:09.541Z,0
2022-10-26T02:55:09.674Z,0
2022-10-26T02:56:09.804Z,0
2022-10-26T02:57:09.930Z,0
2022-10-26T02:58:10.058Z,0
2022-10-26T02:59:10.183Z,0
2022-10-26T03:00:13.557Z,0
2022-10-26T03:01:13.885Z,0
2022-10-26T03:02:14.022Z,0
2022-10-26T03:03:14.155Z,0
2022-10-26T03:04:14.517Z,0
2022-10-26T03:05:14.670Z,0
2022-10-26T03:06:14.792Z,0
2022-10-26T03:07:14.927Z,0
2022-10-26T03:08:15.255Z,0
2022-10-26T03:09:15.406Z,0
2022-10-26T03:10:15.525Z,0.91
2022-10-26T03:11:15.657Z,0.53
2022-10-26T03:12:15.779Z,0.33
2022-10-26T03:13:15.900Z,1.1
2022-10-26T03:14:16.024Z,0
2022-10-26T03:15:16.149Z,0.45
2022-10-26T03:16:16.271Z,0.54
2022-10-26T03:17:16.397Z,0.83
2022-10-26T03:18:16.531Z,0.35
2022-10-26T03:19:16.654Z,0.37
2022-10-26T03:20:16.783Z,0.7
2022-10-26T03:21:16.904Z,0.83
2022-10-26T03:22:17.031Z,0.54
2022-10-26T03:23:17.197Z,0.54
2022-10-26T03:24:17.344Z,0.32
2022-10-26T03:25:17.478Z,0
2022-10-26T03:26:17.612Z,0
2022-10-26T03:27:17.743Z,0
2022-10-26T03:28:17.873Z,0.54
2022-10-26T03:29:18.000Z,0.76
2022-10-26T03:30:18.134Z,0.66
2022-10-26T03:31:18.288Z,0.18
2022-10-26T03:32:18.509Z,0.36
2022-10-26T03:33:18.850Z,0.52
2022-10-26T03:34:19.047Z,0
2022-10-26T03:35:19.167Z,0.33
2022-10-26T03:36:19.289Z,0.51
2022-10-26T03:37:19.419Z,0.15
2022-10-26T03:38:19.543Z,0
2022-10-26T03:39:19.664Z,0.66
2022-10-26T03:40:19.793Z,0.25
2022-10-26T03:41:19.917Z,0
2022-10-26T03:42:20.055Z,0.45
2022-10-26T03:43:20.179Z,0.41
2022-10-26T03:44:20.301Z,0
2022-10-26T03:45:20.431Z,0
2022-10-26T03:46:20.555Z,0
2022-10-26T03:47:20.681Z,0.14
2022-10-26T03:48:20.803Z,0.95
2022-10-26T03:49:20.929Z,0.66
2022-10-26T03:50:21.061Z,0.13
2022-10-26T03:51:21.183Z,0
2022-10-26T03:52:21.325Z,0.33
2022-10-26T03:53:21.450Z,0
2022-10-26T03:54:21.573Z,0
2022-10-26T03:55:21.698Z,0.25
2022-10-26T03:56:21.828Z,1.16
2022-10-26T03:57:21.957Z,0.66
2022-10-26T03:58:22.273Z,0.16
2022-10-26T03:59:22.461Z,0.45
2022-10-26T04:00:22.594Z,0.5
2022-10-26T04:01:22.998Z,0.57
2022-10-26T04:02:23.176Z,0.4
2022-10-26T04:03:23.304Z,0
2022-10-26T04:04:23.692Z,0
2022-10-26T04:05:23.867Z,0
2022-10-26T04:06:23.994Z,0
2022-10-26T04:07:24.122Z,0
2022-10-26T04:08:24.247Z,0
2022-10-26T04:09:24.389Z,0
2022-10-26T04:10:24.519Z,0
2022-10-26T04:11:24.648Z,0
2022-10-26T04:12:24.777Z,0
2022-10-26T04:13:24.899Z,0
2022-10-26T04:14:25.027Z,0
2022-10-26T04:15:25.155Z,0
2022-10-26T04:16:33.630Z,0
2022-10-26T04:17:33.799Z,0
2022-10-26T04:18:33.920Z,0
2022-10-26T04:19:34.046Z,0
2022-10-26T04:20:34.168Z,0
2022-10-26T04:21:34.297Z,0
2022-10-26T04:22:34.413Z,0
2022-10-26T04:23:34.546Z,0
2022-10-26T04:24:34.676Z,0
2022-10-26T04:25:34.822Z,0
2022-10-26T04:26:34.948Z,0
2022-10-26T04:27:35.070Z,0
2022-10-26T04:28:35.193Z,0
2022-10-26T04:29:35.316Z,0
2022-10-26T04:30:35.447Z,0.6
2022-10-26T04:31:35.752Z,0.58
2022-10-26T04:32:35.918Z,0.43
2022-10-26T04:33:36.043Z,0.33
2022-10-26T04:34:36.167Z,0.2
2022-10-26T04:35:36.289Z,0.7
2022-10-26T04:36:36.421Z,0.58
2022-10-26T04:37:36.542Z,0.37
2022-10-26T04:38:36.664Z,0.37
2022-10-26T04:39:36.793Z,0.37
2022-10-26T04:40:36.925Z,0.3
2022-10-26T04:41:37.057Z,0.2
2022-10-26T04:42:37.192Z,0
2022-10-26T04:43:37.319Z,0.69
2022-10-26T04:44:37.441Z,0
2022-10-26T04:45:37.571Z,0
2022-10-26T04:46:37.698Z,0
2022-10-26T04:47:37.824Z,0
2022-10-26T04:48:37.953Z,0
2022-10-26T04:49:38.074Z,0
2022-10-26T04:50:38.208Z,0
2022-10-26T04:51:38.334Z,0
2022-10-26T04:52:38.464Z,0
2022-10-26T04:53:38.590Z,0
2022-10-26T04:54:38.717Z,0
2022-10-26T04:55:38.837Z,0
2022-10-26T04:56:39.167Z,0
2022-10-26T04:57:39.358Z,0
2022-10-26T04:58:39.492Z,0
2022-10-26T04:59:39.615Z,0
2022-10-26T05:00:39.739Z,0
2022-10-26T05:01:40.455Z,0
2022-10-26T05:02:40.645Z,0
2022-10-26T05:03:40.778Z,0
2022-10-26T05:04:40.904Z,0
2022-10-26T05:05:41.026Z,0.62
2022-10-26T05:06:41.155Z,0.62
2022-10-26T05:07:41.281Z,0
2022-10-26T05:08:41.410Z,0.5
2022-10-26T05:09:41.538Z,0.45
2022-10-26T05:10:41.663Z,1.04
2022-10-26T05:11:41.788Z,0.76
2022-10-26T05:12:41.912Z,0.87
2022-10-26T05:13:42.038Z,0.78
2022-10-26T05:14:42.157Z,1.2
2022-10-26T05:15:42.287Z,1.12
2022-10-26T05:16:42.410Z,0.13
2022-10-26T05:17:42.532Z,0
2022-10-26T05:18:42.654Z,0.21
2022-10-26T05:19:43.137Z,0.62
2022-10-26T05:20:43.264Z,0.12
2022-10-26T05:21:49.488Z,0
2022-10-26T05:22:50.782Z,0
2022-10-26T05:23:51.041Z,0
2022-10-26T05:24:51.177Z,0
2022-10-26T05:25:51.305Z,0.81
2022-10-26T05:26:51.437Z,0.7
2022-10-26T05:27:51.564Z,0.75
2022-10-26T05:28:51.693Z,0.38
2022-10-26T05:29:51.821Z,0
2022-10-26T05:30:51.948Z,0
2022-10-26T05:31:52.079Z,0
2022-10-26T05:32:52.211Z,0
2022-10-26T05:33:52.346Z,0
2022-10-26T05:34:52.475Z,0
2022-10-26T05:35:52.597Z,0
2022-10-26T05:36:52.723Z,0
2022-10-26T05:37:53.359Z,0
2022-10-26T05:38:53.500Z,0
2022-10-26T05:39:54.148Z,0
2022-10-26T05:40:54.276Z,0
2022-10-26T05:41:54.410Z,0
2022-10-26T05:42:54.539Z,0
2022-10-26T05:43:54.665Z,0
2022-10-26T05:44:54.790Z,0
2022-10-26T05:45:54.915Z,0
2022-10-26T05:46:55.052Z,0
2022-10-26T05:48:03.374Z,0
2022-10-26T05:49:03.572Z,0
2022-10-26T05:50:03.707Z,0
2022-10-26T05:51:03.839Z,0.87
2022-10-26T05:52:03.964Z,0.47
2022-10-26T05:53:04.103Z,0.2
2022-10-26T05:54:04.242Z,0.54
2022-10-26T05:55:04.616Z,0.15
2022-10-26T05:56:10.862Z,0
2022-10-26T05:57:11.045Z,0
2022-10-26T05:58:11.177Z,0
2022-10-26T05:59:11.315Z,0
2022-10-26T06:00:11.444Z,0.13
2022-10-26T06:01:12.057Z,0.39
2022-10-26T06:02:12.705Z,0.41
2022-10-26T06:03:12.868Z,0.75
2022-10-26T06:04:12.992Z,0
2022-10-26T06:05:13.116Z,0
2022-10-26T06:06:13.242Z,0
2022-10-26T06:07:13.375Z,0
2022-10-26T06:08:13.494Z,0
2022-10-26T06:09:13.631Z,0
2022-10-26T06:10:13.755Z,0
2022-10-26T06:11:13.881Z,0.25
2022-10-26T06:12:20.189Z,0.54
2022-10-26T06:13:20.362Z,0
2022-10-26T06:14:20.491Z,0.2
2022-10-26T06:15:20.623Z,0
2022-10-26T06:16:20.744Z,0.7
2022-10-26T06:17:20.880Z,0.91
2022-10-26T06:18:21.033Z,0.91
2022-10-26T06:19:21.159Z,0.79
2022-10-26T06:20:21.312Z,0.56
2022-10-26T06:21:21.442Z,0
2022-10-26T06:22:21.570Z,0
2022-10-26T06:23:21.697Z,0
2022-10-26T06:24:21.827Z,0
2022-10-26T06:25:21.951Z,0
2022-10-26T06:26:22.080Z,0
2022-10-26T06:27:22.213Z,0
2022-10-26T06:28:22.584Z,0
2022-10-26T06:29:22.775Z,0
2022-10-26T06:30:22.902Z,0
2022-10-26T06:31:23.029Z,0
2022-10-26T06:32:23.158Z,0
2022-10-26T06:33:32.001Z,0
2022-10-26T06:34:32.351Z,0
2022-10-26T06:35:32.475Z,0
2022-10-26T06:36:32.609Z,0
2022-10-26T06:37:32.737Z,0
2022-10-26T06:38:32.860Z,0
2022-10-26T06:39:32.991Z,0
2022-10-26T06:40:33.136Z,0
2022-10-26T06:41:33.265Z,0
2022-10-26T06:42:33.389Z,0
2022-10-26T06:43:33.515Z,0
2022-10-26T06:44:33.675Z,0
2022-10-26T06:45:33.807Z,0
2022-10-26T06:46:33.944Z,0
2022-10-26T06:47:34.073Z,0
2022-10-26T06:48:34.203Z,0
2022-10-26T06:49:34.518Z,0
2022-10-26T06:50:34.762Z,0
2022-10-26T06:51:34.885Z,0
2022-10-26T06:52:35.021Z,0
2022-10-26T06:53:35.279Z,0
2022-10-26T06:54:35.427Z,0
2022-10-26T06:55:35.557Z,0
2022-10-26T06:56:35.679Z,0
2022-10-26T06:57:35.815Z,0
2022-10-26T06:58:35.946Z,0
2022-10-26T06:59:36.071Z,0
2022-10-26T07:00:36.203Z,0
2022-10-26T07:01:36.775Z,0
2022-10-26T07:02:37.235Z,0
2022-10-26T07:03:37.456Z,0
2022-10-26T07:04:37.587Z,0
2022-10-26T07:05:37.709Z,0
2022-10-26T07:06:39.748Z,0
2022-10-26T07:07:39.878Z,0
2022-10-26T07:08:40.002Z,0
2022-10-26T07:09:40.147Z,0
2022-10-26T07:10:40.275Z,0
2022-10-26T07:11:40.397Z,0
2022-10-26T07:12:40.528Z,0
2022-10-26T07:13:40.652Z,0
2022-10-26T07:14:40.779Z,0
2022-10-26T07:15:40.914Z,0
2022-10-26T07:16:41.049Z,0
2022-10-26T07:17:42.980Z,0
2022-10-26T07:18:43.102Z,0
2022-10-26T07:19:43.229Z,0
2022-10-26T07:20:43.361Z,0
2022-10-26T07:21:43.484Z,0.5
2022-10-26T07:22:43.609Z,0.45
2022-10-26T07:23:43.749Z,0.1
2022-10-26T07:24:43.885Z,0.33
2022-10-26T07:25:44.025Z,0
2022-10-26T07:26:44.151Z,0
2022-10-26T07:27:44.296Z,0
2022-10-26T07:28:44.453Z,0
2022-10-26T07:29:44.630Z,0
2022-10-26T07:30:44.756Z,0
2022-10-26T07:31:45.087Z,0
2022-10-26T07:32:45.263Z,0
2022-10-26T07:33:45.390Z,0
2022-10-26T07:34:45.520Z,0
2022-10-26T07:35:45.646Z,0
2022-10-26T07:36:45.774Z,0
2022-10-26T07:37:45.906Z,0
2022-10-26T07:38:46.036Z,0
2022-10-26T07:39:46.165Z,0
2022-10-26T07:40:46.306Z,0
2022-10-26T07:41:46.433Z,0
2022-10-26T07:42:48.082Z,0.77
2022-10-26T07:43:48.232Z,0.79
2022-10-26T07:44:48.353Z,0
2022-10-26T07:45:48.475Z,0
2022-10-26T07:46:48.592Z,0
2022-10-26T07:47:48.720Z,0
2022-10-26T07:48:48.851Z,0
2022-10-26T07:49:48.977Z,0
2022-10-26T07:50:49.109Z,0
2022-10-26T07:51:49.238Z,0
2022-10-26T07:52:50.250Z,0.24
2022-10-26T07:53:50.522Z,0
2022-10-26T07:54:50.651Z,0
2022-10-26T07:55:50.778Z,0
2022-10-26T07:56:50.908Z,0
2022-10-26T07:57:55.847Z,0
2022-10-26T07:58:56.444Z,0
2022-10-26T07:59:56.575Z,0
2022-10-26T08:00:57.236Z,0
2022-10-26T08:01:57.599Z,0
2022-10-26T08:02:57.790Z,0
2022-10-26T08:03:57.921Z,0
2022-10-26T08:04:58.044Z,0
2022-10-26T08:05:58.166Z,0
2022-10-26T08:06:58.297Z,0
2022-10-26T08:07:58.426Z,0
2022-10-26T08:08:58.553Z,0
2022-10-26T08:09:58.700Z,0
2022-10-26T08:10:58.820Z,0
2022-10-26T08:11:58.945Z,0
2022-10-26T08:12:59.069Z,0
2022-10-26T08:13:59.195Z,0
2022-10-26T08:14:59.319Z,0
2022-10-26T08:15:59.447Z,0
2022-10-26T08:16:59.579Z,0
2022-10-26T08:17:59.708Z,0
2022-10-26T08:18:59.849Z,0
2022-10-26T08:19:59.982Z,0
2022-10-26T08:21:13.435Z,0
2022-10-26T08:22:16.899Z,0
2022-10-26T08:23:17.033Z,0
2022-10-26T08:24:17.184Z,0
2022-10-26T08:25:21.803Z,0
2022-10-26T08:26:21.934Z,0
2022-10-26T08:27:22.067Z,0
2022-10-26T08:28:22.195Z,0
2022-10-26T08:29:22.333Z,0
2022-10-26T08:30:22.883Z,0
2022-10-26T08:31:23.076Z,0
2022-10-26T08:32:23.205Z,0
2022-10-26T08:33:23.328Z,0
2022-10-26T08:34:23.450Z,0
2022-10-26T08:35:23.581Z,0
2022-10-26T08:36:23.711Z,0
2022-10-26T08:37:23.833Z,0
2022-10-26T08:38:23.962Z,0
2022-10-26T08:39:24.101Z,0
2022-10-26T08:40:24.222Z,0
2022-10-26T08:41:24.351Z,0
2022-10-26T08:42:24.483Z,0
2022-10-26T08:43:24.616Z,0.14
2022-10-26T08:44:24.750Z,0.12
2022-10-26T08:45:37.280Z,0.83
2022-10-26T08:46:37.459Z,0.1
2022-10-26T08:47:37.587Z,0.29
2022-10-26T08:48:37.711Z,0.79
2022-10-26T08:49:37.841Z,0.66
2022-10-26T08:50:43.084Z,0
2022-10-26T08:51:43.228Z,0
2022-10-26T08:52:43.362Z,0
2022-10-26T08:53:43.486Z,0
2022-10-26T08:54:43.642Z,0
2022-10-26T08:55:45.944Z,0.2
2022-10-26T08:56:51.138Z,1.62
2022-10-26T08:57:52.717Z,0.62
2022-10-26T08:58:53.049Z,0.2
2022-10-26T08:59:53.174Z,0.41
2022-10-26T09:00:53.516Z,1.6
2022-10-26T09:01:53.755Z,0.19
2022-10-26T09:02:53.900Z,0
2022-10-26T09:03:54.183Z,0.18
2022-10-26T09:04:54.331Z,0.58
2022-10-26T09:05:54.449Z,1.29
2022-10-26T09:06:54.881Z,1.18
2022-10-26T09:07:55.076Z,0.84
2022-10-26T09:08:55.198Z,0.59
2022-10-26T09:09:55.324Z,0.31
2022-10-26T09:10:55.445Z,0
2022-10-26T09:11:55.576Z,0
2022-10-26T09:12:55.705Z,0
2022-10-26T09:14:00.220Z,0
2022-10-26T09:15:00.354Z,0.58
2022-10-26T09:16:00.690Z,1.12
2022-10-26T09:17:00.817Z,1.41
2022-10-26T09:18:00.939Z,0.81
2022-10-26T09:19:03.371Z,0.41
2022-10-26T09:20:03.505Z,0.83
2022-10-26T09:21:03.634Z,0
2022-10-26T09:22:03.778Z,0.41
2022-10-26T09:23:03.899Z,0
2022-10-26T09:24:04.027Z,0
2022-10-26T09:25:08.069Z,0
2022-10-26T09:26:08.196Z,0.54
2022-10-26T09:27:08.328Z,0
2022-10-26T09:28:08.459Z,0.37
2022-10-26T09:29:08.586Z,0
2022-10-26T09:30:08.708Z,0
2022-10-26T09:31:08.834Z,0.66
2022-10-26T09:32:08.961Z,0.95
2022-10-26T09:33:09.088Z,0.79
2022-10-26T09:34:09.229Z,0.45
2022-10-26T09:35:09.364Z,0
2022-10-26T09:36:17.213Z,0
2022-10-26T09:37:17.369Z,0
2022-10-26T09:38:17.495Z,0.2
2022-10-26T09:39:17.615Z,0.1
2022-10-26T09:40:17.768Z,0
2022-10-26T09:41:17.893Z,0
2022-10-26T09:42:18.020Z,0
2022-10-26T09:43:18.144Z,0.16
2022-10-26T09:44:18.265Z,0
2022-10-26T09:45:18.388Z,0
2022-10-26T09:46:18.511Z,0
2022-10-26T09:47:18.634Z,0.45
2022-10-26T09:48:18.760Z,0.2
2022-10-26T09:49:18.893Z,0
2022-10-26T09:50:19.278Z,0
2022-10-26T09:51:19.404Z,0
2022-10-26T09:52:19.532Z,0
2022-10-26T09:53:19.661Z,0.35
2022-10-26T09:54:19.786Z,0.22
2022-10-26T09:55:19.921Z,0
2022-10-26T09:56:20.049Z,0
2022-10-26T09:57:20.181Z,0.45
2022-10-26T09:58:20.317Z,0.85
2022-10-26T09:59:20.439Z,0.33
2022-10-26T10:00:20.709Z,1.45
2022-10-26T10:01:21.048Z,1.66
2022-10-26T10:02:21.217Z,0.33
2022-10-26T10:03:21.747Z,0.64
2022-10-26T10:04:21.895Z,0.66
2022-10-26T10:05:52.373Z,0.87
2022-10-26T10:06:52.879Z,0.34
2022-10-26T10:07:53.005Z,1
2022-10-26T10:08:53.304Z,0.17
2022-10-26T10:09:53.462Z,0
2022-10-26T10:10:53.588Z,0.33
2022-10-26T10:11:53.777Z,0
2022-10-26T10:12:53.913Z,0
2022-10-26T10:13:54.033Z,0.66
2022-10-26T10:14:54.471Z,0.23
2022-10-26T10:15:54.604Z,0.5
2022-10-26T10:16:54.731Z,1.2
2022-10-26T10:17:55.900Z,0.88
2022-10-26T10:18:56.236Z,0
2022-10-26T10:19:56.377Z,0.12
2022-10-26T10:20:56.516Z,0
2022-10-26T10:21:56.645Z,0
2022-10-26T10:22:56.776Z,0
2022-10-26T10:23:56.906Z,0
2022-10-26T10:24:57.027Z,0
2022-10-26T10:25:57.363Z,0.14
2022-10-26T10:26:57.542Z,0
2022-10-26T10:27:57.748Z,0.33
2022-10-26T10:28:57.907Z,0
2022-10-26T10:30:04.658Z,0
2022-10-26T10:31:04.991Z,0
2022-10-26T10:32:05.160Z,0.66
2022-10-26T10:33:05.295Z,0.16
2022-10-26T10:34:05.429Z,0.91
2022-10-26T10:35:05.557Z,0
2022-10-26T10:36:05.681Z,0
2022-10-26T10:37:05.806Z,0.16
2022-10-26T10:38:05.933Z,0
2022-10-26T10:39:06.059Z,0
2022-10-26T10:40:06.190Z,1.04
2022-10-26T10:41:06.313Z,0
2022-10-26T10:42:06.446Z,0
2022-10-26T10:43:06.586Z,0
2022-10-26T10:44:06.706Z,0
2022-10-26T10:45:06.841Z,0.32
2022-10-26T10:46:06.969Z,0.41
2022-10-26T10:47:07.094Z,0.2
2022-10-26T10:48:07.220Z,0
2022-10-26T10:49:07.344Z,1.54
2022-10-26T10:50:07.471Z,1.29
2022-10-26T10:51:07.595Z,0
2022-10-26T10:52:07.721Z,0
2022-10-26T10:53:07.848Z,0
2022-10-26T10:54:07.971Z,0.18
2022-10-26T10:55:08.105Z,0
2022-10-26T10:56:11.881Z,0.17
2022-10-26T10:57:12.004Z,0.75
2022-10-26T10:58:12.290Z,0.45
2022-10-26T10:59:12.732Z,0.67
2022-10-26T11:00:12.874Z,0
2022-10-26T11:01:13.513Z,0.29
2022-10-26T11:02:14.192Z,1.1
2022-10-26T11:03:14.645Z,0.2
2022-10-26T11:04:16.845Z,2.16
2022-10-26T11:05:16.990Z,1.69
2022-10-26T11:06:17.120Z,1.15
2022-10-26T11:07:17.244Z,1.45
2022-10-26T11:08:17.363Z,0.76
2022-10-26T11:09:17.485Z,0.64
2022-10-26T11:10:17.613Z,0.83
2022-10-26T11:11:17.743Z,0.12
2022-10-26T11:12:17.871Z,0
2022-10-26T11:13:18.002Z,0
2022-10-26T11:14:18.124Z,1.97
2022-10-26T11:15:18.258Z,1.48
2022-10-26T11:16:18.386Z,1.54
2022-10-26T11:17:18.509Z,0.11
2022-10-26T11:18:18.633Z,0.41
2022-10-26T11:19:18.764Z,0
2022-10-26T11:20:18.887Z,0.1
2022-10-26T11:21:19.022Z,2.04
2022-10-26T11:22:19.167Z,0.7
2022-10-26T11:23:19.473Z,0.55
2022-10-26T11:24:19.597Z,0
2022-10-26T11:25:19.849Z,0.1
2022-10-26T11:26:19.999Z,0.47
2022-10-26T11:27:20.125Z,0.77
2022-10-26T11:28:20.259Z,1.37
2022-10-26T11:29:20.396Z,1.54
2022-10-26T11:30:20.522Z,2.34
2022-10-26T11:31:20.646Z,1.83
2022-10-26T11:32:20.780Z,2.37
2022-10-26T11:33:20.905Z,1.1
2022-10-26T11:34:21.032Z,0.2
2022-10-26T11:35:21.155Z,2
2022-10-26T11:36:22.335Z,0.27
2022-10-26T11:37:22.458Z,0.37
2022-10-26T11:38:56.258Z,0
2022-10-26T11:39:56.898Z,1.2
2022-10-26T11:40:57.028Z,0.2
2022-10-26T11:41:57.164Z,0
2022-10-26T11:42:57.297Z,0
2022-10-26T11:43:57.420Z,0
2022-10-26T11:44:57.551Z,0
2022-10-26T11:46:03.776Z,0.29
2022-10-26T11:47:03.899Z,0
2022-10-26T11:48:04.186Z,0
2022-10-26T11:49:04.445Z,0
2022-10-26T11:50:04.573Z,0
2022-10-26T11:51:04.698Z,0.16
2022-10-26T11:52:04.827Z,0
2022-10-26T11:53:04.968Z,0
2022-10-26T11:54:05.091Z,0
2022-10-26T11:55:05.224Z,0
2022-10-26T11:56:05.358Z,0
2022-10-26T11:57:05.480Z,0
2022-10-26T11:58:05.607Z,0
2022-10-26T11:59:05.754Z,0.12
2022-10-26T12:00:05.908Z,0.33
2022-10-26T12:01:06.283Z,0.39
2022-10-26T12:02:06.466Z,0
2022-10-26T12:03:06.618Z,0
2022-10-26T12:04:06.775Z,0
2022-10-26T12:05:06.903Z,0
2022-10-26T12:06:07.209Z,0
2022-10-26T12:07:07.375Z,0.12
2022-10-26T12:08:07.506Z,0
2022-10-26T12:09:07.636Z,0
2022-10-26T12:10:07.764Z,0.27
2022-10-26T12:11:10.017Z,1.58
2022-10-26T12:12:10.154Z,0.18
2022-10-26T12:13:10.276Z,0
2022-10-26T12:14:10.400Z,0
2022-10-26T12:15:10.530Z,1.54
2022-10-26T12:16:10.666Z,0.77
2022-10-26T12:17:10.790Z,0
2022-10-26T12:18:10.915Z,0
2022-10-26T12:19:11.039Z,0
2022-10-26T12:20:11.184Z,0.6
2022-10-26T12:21:11.304Z,1.45
2022-10-26T12:22:11.435Z,0.68
2022-10-26T12:23:40.688Z,0.68
2022-10-26T12:24:47.872Z,0.13
2022-10-26T12:25:48.002Z,0.2
2022-10-26T12:26:48.122Z,1.37
2022-10-26T12:27:50.386Z,2.2
2022-10-26T12:28:54.830Z,2.32
2022-10-26T12:29:54.961Z,1.75
2022-10-26T12:30:55.088Z,1.7
2022-10-26T12:31:55.215Z,1.47
2022-10-26T12:32:55.349Z,1.91
2022-10-26T12:33:55.474Z,0.97
2022-10-26T12:34:55.595Z,1.21
2022-10-26T12:35:55.872Z,2.2
2022-10-26T12:36:56.027Z,1.23
2022-10-26T12:37:56.150Z,0.7
2022-10-26T12:38:56.272Z,2.04
2022-10-26T12:39:56.394Z,1.2
2022-10-26T12:40:56.522Z,1.66
2022-10-26T12:41:56.645Z,1.5
2022-10-26T12:42:56.769Z,0.69
2022-10-26T12:43:56.904Z,0.16
2022-10-26T12:44:57.034Z,0.25
2022-10-26T12:45:57.163Z,0.69
2022-10-26T12:46:57.286Z,1
2022-10-26T12:47:57.412Z,1.95
2022-10-26T12:48:57.537Z,1.75
2022-10-26T12:49:57.665Z,1.2
2022-10-26T12:50:57.790Z,1.19
2022-10-26T12:51:58.021Z,1.79
2022-10-26T12:52:58.180Z,0.54
2022-10-26T12:53:58.318Z,1.62
2022-10-26T12:54:58.442Z,1.16
2022-10-26T12:55:58.568Z,0.6
2022-10-26T12:56:58.689Z,1.22
2022-10-26T12:57:58.808Z,1.58
2022-10-26T12:59:05.167Z,0.3
2022-10-26T13:00:05.362Z,0.12
2022-10-26T13:01:05.659Z,0.28
2022-10-26T13:02:05.784Z,1.41
2022-10-26T13:03:05.904Z,1.08
2022-10-26T13:04:06.034Z,0.93
2022-10-26T13:05:08.350Z,0.54
2022-10-26T13:06:08.476Z,0.8
2022-10-26T13:07:08.599Z,0.45
2022-10-26T13:08:08.728Z,0.97
2022-10-26T13:09:19.777Z,1.79
2022-10-26T13:10:20.627Z,1.16
2022-10-26T13:11:20.767Z,1.41
2022-10-26T13:12:20.896Z,1.08
2022-10-26T13:13:21.058Z,1.12
2022-10-26T13:14:21.183Z,1.56
2022-10-26T13:15:21.313Z,1.33
2022-10-26T13:16:21.433Z,1.33
2022-10-26T13:17:21.670Z,1.04
2022-10-26T13:18:21.814Z,1.11
2022-10-26T13:19:24.259Z,0.79
2022-10-26T13:20:24.380Z,0.1
2022-10-26T13:21:24.517Z,1.14
2022-10-26T13:22:24.664Z,0.54
2022-10-26T13:23:24.809Z,1.41
2022-10-26T13:24:25.070Z,0.77
2022-10-26T13:25:25.207Z,0.95
2022-10-26T13:26:25.366Z,0.83
2022-10-26T13:27:25.494Z,0.48
2022-10-26T13:28:25.619Z,0.87
2022-10-26T13:29:25.752Z,0.95
2022-10-26T13:30:25.873Z,1.07
2022-10-26T13:31:25.995Z,0.87
2022-10-26T13:32:26.124Z,1.29
2022-10-26T13:33:26.668Z,0.75
2022-10-26T13:34:27.762Z,0.64
2022-10-26T13:35:27.914Z,1.25
2022-10-26T13:36:28.046Z,0.95
2022-10-26T13:37:28.169Z,0.13
2022-10-26T13:38:28.293Z,1
2022-10-26T13:39:28.418Z,1.5
2022-10-26T13:40:28.540Z,0.91
2022-10-26T13:41:28.659Z,0
2022-10-26T13:42:28.913Z,0.91
2022-10-26T13:43:29.092Z,0
2022-10-26T13:44:29.216Z,0.11
2022-10-26T13:45:29.340Z,0.7
2022-10-26T13:46:29.461Z,0.18
2022-10-26T13:47:29.584Z,0
2022-10-26T13:48:29.726Z,0.11
2022-10-26T13:49:29.860Z,0
2022-10-26T13:50:32.351Z,0
2022-10-26T13:51:32.476Z,0
2022-10-26T13:52:32.593Z,0.33
2022-10-26T13:53:38.982Z,1.12
2022-10-26T13:54:41.272Z,0.12
2022-10-26T13:55:41.396Z,0.12
2022-10-26T13:56:41.519Z,0
2022-10-26T13:57:41.646Z,0.63
2022-10-26T13:58:41.771Z,1.12
2022-10-26T13:59:41.898Z,0.75
2022-10-26T14:00:42.256Z,0.25
2022-10-26T14:01:42.838Z,0
2022-10-26T14:02:42.999Z,0.62
2022-10-26T14:03:43.126Z,0.45
2022-10-26T14:04:43.261Z,0.27
2022-10-26T14:05:43.392Z,0
2022-10-26T14:06:43.516Z,0.25
2022-10-26T14:07:43.689Z,0.82
2022-10-26T14:08:43.821Z,0.54
2022-10-26T14:09:43.948Z,1
2022-10-26T14:10:44.074Z,1.2
2022-10-26T14:11:44.193Z,0.75
2022-10-26T14:12:44.480Z,0.41
2022-10-26T14:13:44.630Z,0.47
2022-10-26T14:14:44.757Z,0.26